sensor_id;sensor_type;location;lat;lon;timestamp;P1;durP1;ratioP1;P2;durP2;ratioP2
67889;SDS011;54685;52.082;5.426;2023-01-24T00:00:42;16.88;;;12.70;;
67889;SDS011;54685;52.082;5.426;2023-01-24T00:03:09;16.23;;;12.50;;
67889;SDS011;54685;52.082;5.426;2023-01-24T00:05:39;15.85;;;12.82;;
67889;SDS011;54685;52.082;5.426;2023-01-24T00:08:06;22.35;;;13.23;;
67889;SDS011;54685;52.082;5.426;2023-01-24T00:10:34;16.52;;;13.48;;
67889;SDS011;54685;52.082;5.426;2023-01-24T00:13:02;16.63;;;13.45;;
67889;SDS011;54685;52.082;5.426;2023-01-24T00:15:29;19.05;;;14.20;;
67889;SDS011;54685;52.082;5.426;2023-01-24T00:17:55;16.33;;;13.13;;
67889;SDS011;54685;52.082;5.426;2023-01-24T00:20:22;17.13;;;13.48;;
67889;SDS011;54685;52.082;5.426;2023-01-24T00:22:49;19.08;;;13.45;;
67889;SDS011;54685;52.082;5.426;2023-01-24T00:25:16;19.80;;;14.38;;
67889;SDS011;54685;52.082;5.426;2023-01-24T00:27:44;17.50;;;14.00;;
67889;SDS011;54685;52.082;5.426;2023-01-24T00:30:11;19.90;;;14.35;;
67889;SDS011;54685;52.082;5.426;2023-01-24T00:32:37;17.40;;;13.70;;
67889;SDS011;54685;52.082;5.426;2023-01-24T00:35:04;17.80;;;14.18;;
67889;SDS011;54685;52.082;5.426;2023-01-24T00:37:32;16.55;;;13.07;;
67889;SDS011;54685;52.082;5.426;2023-01-24T00:39:59;18.90;;;14.00;;
67889;SDS011;54685;52.082;5.426;2023-01-24T00:42:26;20.00;;;14.75;;
67889;SDS011;54685;52.082;5.426;2023-01-24T00:44:52;17.85;;;14.13;;
67889;SDS011;54685;52.082;5.426;2023-01-24T00:47:19;20.27;;;14.68;;
67889;SDS011;54685;52.082;5.426;2023-01-24T00:49:46;20.52;;;15.25;;
67889;SDS011;54685;52.082;5.426;2023-01-24T00:52:13;19.73;;;14.82;;
67889;SDS011;54685;52.082;5.426;2023-01-24T00:54:40;19.98;;;14.48;;
67889;SDS011;54685;52.082;5.426;2023-01-24T00:57:07;20.30;;;15.35;;
67889;SDS011;54685;52.082;5.426;2023-01-24T00:59:34;18.20;;;14.50;;
67889;SDS011;54685;52.082;5.426;2023-01-24T01:02:03;24.80;;;15.55;;
67889;SDS011;54685;52.082;5.426;2023-01-24T01:04:30;20.42;;;14.90;;
67889;SDS011;54685;52.082;5.426;2023-01-24T01:06:57;19.15;;;14.38;;
67889;SDS011;54685;52.082;5.426;2023-01-24T01:09:24;18.13;;;13.73;;
67889;SDS011;54685;52.082;5.426;2023-01-24T01:11:51;22.70;;;14.95;;
67889;SDS011;54685;52.082;5.426;2023-01-24T01:14:17;22.88;;;15.13;;
67889;SDS011;54685;52.082;5.426;2023-01-24T01:16:44;21.23;;;14.45;;
67889;SDS011;54685;52.082;5.426;2023-01-24T01:19:11;22.38;;;16.02;;
67889;SDS011;54685;52.082;5.426;2023-01-24T01:21:38;19.38;;;14.93;;
67889;SDS011;54685;52.082;5.426;2023-01-24T01:24:05;18.45;;;14.10;;
67889;SDS011;54685;52.082;5.426;2023-01-24T01:26:32;18.05;;;13.75;;
67889;SDS011;54685;52.082;5.426;2023-01-24T01:29:00;18.02;;;14.48;;
67889;SDS011;54685;52.082;5.426;2023-01-24T01:31:27;22.08;;;15.45;;
67889;SDS011;54685;52.082;5.426;2023-01-24T01:33:54;20.08;;;15.38;;
67889;SDS011;54685;52.082;5.426;2023-01-24T01:36:20;23.75;;;15.27;;
67889;SDS011;54685;52.082;5.426;2023-01-24T01:38:47;20.08;;;14.43;;
67889;SDS011;54685;52.082;5.426;2023-01-24T01:41:14;21.20;;;16.30;;
67889;SDS011;54685;52.082;5.426;2023-01-24T01:43:41;18.15;;;14.10;;
67889;SDS011;54685;52.082;5.426;2023-01-24T01:46:29;17.45;;;14.05;;
67889;SDS011;54685;52.082;5.426;2023-01-24T01:49:02;18.85;;;13.73;;
67889;SDS011;54685;52.082;5.426;2023-01-24T01:51:35;18.58;;;13.88;;
67889;SDS011;54685;52.082;5.426;2023-01-24T01:54:31;17.65;;;13.95;;
67889;SDS011;54685;52.082;5.426;2023-01-24T01:57:08;18.52;;;13.70;;
67889;SDS011;54685;52.082;5.426;2023-01-24T01:59:51;18.90;;;13.98;;
67889;SDS011;54685;52.082;5.426;2023-01-24T02:02:37;18.50;;;14.00;;
67889;SDS011;54685;52.082;5.426;2023-01-24T02:05:06;17.38;;;12.98;;
67889;SDS011;54685;52.082;5.426;2023-01-24T02:10:28;19.17;;;12.77;;
67889;SDS011;54685;52.082;5.426;2023-01-24T02:13:15;19.42;;;14.00;;
67889;SDS011;54685;52.082;5.426;2023-01-24T02:15:43;17.02;;;12.85;;
67889;SDS011;54685;52.082;5.426;2023-01-24T02:18:33;20.77;;;13.45;;
67889;SDS011;54685;52.082;5.426;2023-01-24T02:21:03;16.35;;;12.52;;
67889;SDS011;54685;52.082;5.426;2023-01-24T02:23:35;17.40;;;13.30;;
67889;SDS011;54685;52.082;5.426;2023-01-24T02:26:23;17.23;;;12.63;;
67889;SDS011;54685;52.082;5.426;2023-01-24T02:28:56;17.08;;;12.93;;
67889;SDS011;54685;52.082;5.426;2023-01-24T02:33:51;18.30;;;12.88;;
67889;SDS011;54685;52.082;5.426;2023-01-24T02:36:26;17.50;;;12.75;;
67889;SDS011;54685;52.082;5.426;2023-01-24T02:38:59;16.88;;;12.77;;
67889;SDS011;54685;52.082;5.426;2023-01-24T02:41:36;19.50;;;14.43;;
67889;SDS011;54685;52.082;5.426;2023-01-24T02:44:16;22.38;;;13.80;;
67889;SDS011;54685;52.082;5.426;2023-01-24T02:46:47;17.30;;;13.38;;
67889;SDS011;54685;52.082;5.426;2023-01-24T02:49:14;17.33;;;13.25;;
67889;SDS011;54685;52.082;5.426;2023-01-24T02:51:41;20.67;;;14.25;;
67889;SDS011;54685;52.082;5.426;2023-01-24T02:54:26;22.05;;;14.13;;
67889;SDS011;54685;52.082;5.426;2023-01-24T02:56:53;21.65;;;14.13;;
67889;SDS011;54685;52.082;5.426;2023-01-24T02:59:39;19.15;;;14.23;;
67889;SDS011;54685;52.082;5.426;2023-01-24T03:02:07;18.92;;;13.85;;
67889;SDS011;54685;52.082;5.426;2023-01-24T03:04:34;17.92;;;13.48;;
67889;SDS011;54685;52.082;5.426;2023-01-24T03:07:04;20.23;;;13.80;;
67889;SDS011;54685;52.082;5.426;2023-01-24T03:09:31;20.67;;;14.55;;
67889;SDS011;54685;52.082;5.426;2023-01-24T03:12:03;17.40;;;13.73;;
67889;SDS011;54685;52.082;5.426;2023-01-24T03:14:54;18.05;;;13.38;;
67889;SDS011;54685;52.082;5.426;2023-01-24T03:17:41;19.38;;;14.23;;
67889;SDS011;54685;52.082;5.426;2023-01-24T03:20:27;18.92;;;13.52;;
67889;SDS011;54685;52.082;5.426;2023-01-24T03:23:12;19.40;;;13.93;;
67889;SDS011;54685;52.082;5.426;2023-01-24T03:25:58;19.90;;;13.85;;
67889;SDS011;54685;52.082;5.426;2023-01-24T03:28:45;16.80;;;13.00;;
67889;SDS011;54685;52.082;5.426;2023-01-24T03:31:30;21.70;;;14.35;;
67889;SDS011;54685;52.082;5.426;2023-01-24T03:34:17;17.75;;;13.10;;
67889;SDS011;54685;52.082;5.426;2023-01-24T03:36:58;19.48;;;13.93;;
67889;SDS011;54685;52.082;5.426;2023-01-24T03:39:26;19.23;;;13.27;;
67889;SDS011;54685;52.082;5.426;2023-01-24T03:42:11;20.08;;;13.85;;
67889;SDS011;54685;52.082;5.426;2023-01-24T03:44:38;18.98;;;13.07;;
67889;SDS011;54685;52.082;5.426;2023-01-24T03:47:05;18.60;;;13.27;;
67889;SDS011;54685;52.082;5.426;2023-01-24T03:49:32;17.85;;;13.45;;
67889;SDS011;54685;52.082;5.426;2023-01-24T03:52:18;16.40;;;12.40;;
67889;SDS011;54685;52.082;5.426;2023-01-24T03:54:50;18.98;;;12.90;;
67889;SDS011;54685;52.082;5.426;2023-01-24T03:57:17;18.13;;;12.85;;
67889;SDS011;54685;52.082;5.426;2023-01-24T03:59:44;17.55;;;13.30;;
67889;SDS011;54685;52.082;5.426;2023-01-24T04:02:11;18.25;;;13.82;;
67889;SDS011;54685;52.082;5.426;2023-01-24T04:04:38;17.17;;;12.50;;
67889;SDS011;54685;52.082;5.426;2023-01-24T04:07:25;19.50;;;13.88;;
67889;SDS011;54685;52.082;5.426;2023-01-24T04:09:58;19.38;;;13.57;;
67889;SDS011;54685;52.082;5.426;2023-01-24T04:12:26;16.92;;;12.35;;
67889;SDS011;54685;52.082;5.426;2023-01-24T04:14:53;20.90;;;13.95;;
67889;SDS011;54685;52.082;5.426;2023-01-24T04:17:20;18.42;;;13.77;;
67889;SDS011;54685;52.082;5.426;2023-01-24T04:19:50;18.85;;;13.95;;
67889;SDS011;54685;52.082;5.426;2023-01-24T04:22:17;21.55;;;14.50;;
67889;SDS011;54685;52.082;5.426;2023-01-24T04:24:45;20.52;;;14.98;;
67889;SDS011;54685;52.082;5.426;2023-01-24T04:27:12;21.85;;;14.10;;
67889;SDS011;54685;52.082;5.426;2023-01-24T04:29:56;22.25;;;15.25;;
67889;SDS011;54685;52.082;5.426;2023-01-24T04:32:23;20.38;;;14.35;;
67889;SDS011;54685;52.082;5.426;2023-01-24T04:34:57;20.60;;;14.15;;
67889;SDS011;54685;52.082;5.426;2023-01-24T04:37:57;20.08;;;14.15;;
67889;SDS011;54685;52.082;5.426;2023-01-24T04:40:37;20.60;;;14.95;;
67889;SDS011;54685;52.082;5.426;2023-01-24T04:43:05;21.08;;;14.98;;
67889;SDS011;54685;52.082;5.426;2023-01-24T04:45:33;18.92;;;14.82;;
67889;SDS011;54685;52.082;5.426;2023-01-24T04:48:00;21.75;;;15.02;;
67889;SDS011;54685;52.082;5.426;2023-01-24T04:50:27;19.80;;;14.60;;
67889;SDS011;54685;52.082;5.426;2023-01-24T04:52:54;23.92;;;14.75;;
67889;SDS011;54685;52.082;5.426;2023-01-24T04:55:21;21.75;;;15.88;;
67889;SDS011;54685;52.082;5.426;2023-01-24T04:57:50;21.23;;;14.70;;
67889;SDS011;54685;52.082;5.426;2023-01-24T05:00:17;22.80;;;15.43;;
67889;SDS011;54685;52.082;5.426;2023-01-24T05:02:44;19.98;;;14.52;;
67889;SDS011;54685;52.082;5.426;2023-01-24T05:05:12;21.67;;;15.13;;
67889;SDS011;54685;52.082;5.426;2023-01-24T05:07:39;23.60;;;16.55;;
67889;SDS011;54685;52.082;5.426;2023-01-24T05:10:11;21.50;;;15.50;;
67889;SDS011;54685;52.082;5.426;2023-01-24T05:12:38;23.80;;;16.20;;
67889;SDS011;54685;52.082;5.426;2023-01-24T05:15:12;21.17;;;15.32;;
67889;SDS011;54685;52.082;5.426;2023-01-24T05:17:42;24.50;;;16.60;;
67889;SDS011;54685;52.082;5.426;2023-01-24T05:20:11;29.00;;;15.40;;
67889;SDS011;54685;52.082;5.426;2023-01-24T05:22:39;23.48;;;15.88;;
67889;SDS011;54685;52.082;5.426;2023-01-24T05:25:06;26.70;;;17.40;;
67889;SDS011;54685;52.082;5.426;2023-01-24T05:27:33;23.73;;;16.15;;
67889;SDS011;54685;52.082;5.426;2023-01-24T05:30:03;24.30;;;17.30;;
67889;SDS011;54685;52.082;5.426;2023-01-24T05:32:31;25.10;;;17.23;;
67889;SDS011;54685;52.082;5.426;2023-01-24T05:34:58;28.35;;;17.55;;
67889;SDS011;54685;52.082;5.426;2023-01-24T05:37:24;25.80;;;17.67;;
67889;SDS011;54685;52.082;5.426;2023-01-24T05:39:51;26.33;;;18.27;;
67889;SDS011;54685;52.082;5.426;2023-01-24T05:42:18;27.02;;;18.20;;
67889;SDS011;54685;52.082;5.426;2023-01-24T05:44:48;30.20;;;19.63;;
67889;SDS011;54685;52.082;5.426;2023-01-24T05:47:15;28.98;;;18.38;;
67889;SDS011;54685;52.082;5.426;2023-01-24T05:49:45;27.25;;;18.45;;
67889;SDS011;54685;52.082;5.426;2023-01-24T05:52:12;28.85;;;19.75;;
67889;SDS011;54685;52.082;5.426;2023-01-24T05:54:47;29.02;;;19.85;;
67889;SDS011;54685;52.082;5.426;2023-01-24T05:57:26;30.33;;;20.83;;
67889;SDS011;54685;52.082;5.426;2023-01-24T06:00:11;28.45;;;19.63;;
67889;SDS011;54685;52.082;5.426;2023-01-24T06:03:11;29.65;;;18.60;;
67889;SDS011;54685;52.082;5.426;2023-01-24T06:05:38;28.98;;;19.15;;
67889;SDS011;54685;52.082;5.426;2023-01-24T06:08:05;27.98;;;18.77;;
67889;SDS011;54685;52.082;5.426;2023-01-24T06:10:32;28.42;;;19.25;;
67889;SDS011;54685;52.082;5.426;2023-01-24T06:13:04;29.75;;;19.42;;
67889;SDS011;54685;52.082;5.426;2023-01-24T06:15:31;28.42;;;19.52;;
67889;SDS011;54685;52.082;5.426;2023-01-24T06:17:59;30.73;;;19.42;;
67889;SDS011;54685;52.082;5.426;2023-01-24T06:20:26;28.25;;;19.15;;
67889;SDS011;54685;52.082;5.426;2023-01-24T06:22:55;26.17;;;18.60;;
67889;SDS011;54685;52.082;5.426;2023-01-24T06:25:30;29.33;;;19.20;;
67889;SDS011;54685;52.082;5.426;2023-01-24T06:27:58;30.38;;;17.83;;
67889;SDS011;54685;52.082;5.426;2023-01-24T06:30:25;29.23;;;19.10;;
67889;SDS011;54685;52.082;5.426;2023-01-24T06:38:41;25.80;;;18.33;;
67889;SDS011;54685;52.082;5.426;2023-01-24T06:41:15;27.13;;;18.67;;
67889;SDS011;54685;52.082;5.426;2023-01-24T06:43:43;27.98;;;19.50;;
67889;SDS011;54685;52.082;5.426;2023-01-24T06:46:11;25.35;;;18.17;;
67889;SDS011;54685;52.082;5.426;2023-01-24T06:48:41;26.30;;;18.42;;
67889;SDS011;54685;52.082;5.426;2023-01-24T06:51:11;28.33;;;19.30;;
67889;SDS011;54685;52.082;5.426;2023-01-24T06:53:40;27.92;;;19.60;;
67889;SDS011;54685;52.082;5.426;2023-01-24T06:56:07;28.00;;;18.92;;
67889;SDS011;54685;52.082;5.426;2023-01-24T06:58:34;26.33;;;18.92;;
67889;SDS011;54685;52.082;5.426;2023-01-24T07:01:01;29.38;;;19.98;;
67889;SDS011;54685;52.082;5.426;2023-01-24T07:03:29;30.45;;;19.77;;
67889;SDS011;54685;52.082;5.426;2023-01-24T07:05:56;28.75;;;20.63;;
67889;SDS011;54685;52.082;5.426;2023-01-24T07:08:23;27.90;;;20.08;;
67889;SDS011;54685;52.082;5.426;2023-01-24T07:10:49;28.85;;;19.33;;
67889;SDS011;54685;52.082;5.426;2023-01-24T07:13:16;31.88;;;20.27;;
67889;SDS011;54685;52.082;5.426;2023-01-24T07:15:43;28.27;;;19.98;;
67889;SDS011;54685;52.082;5.426;2023-01-24T07:18:11;29.05;;;19.48;;
67889;SDS011;54685;52.082;5.426;2023-01-24T07:20:39;30.58;;;20.55;;
67889;SDS011;54685;52.082;5.426;2023-01-24T07:23:12;29.90;;;19.48;;
67889;SDS011;54685;52.082;5.426;2023-01-24T07:25:45;31.48;;;20.67;;
67889;SDS011;54685;52.082;5.426;2023-01-24T07:28:13;31.00;;;21.38;;
67889;SDS011;54685;52.082;5.426;2023-01-24T07:30:40;28.50;;;21.33;;
67889;SDS011;54685;52.082;5.426;2023-01-24T07:33:07;30.95;;;20.77;;
67889;SDS011;54685;52.082;5.426;2023-01-24T07:35:34;32.78;;;21.10;;
67889;SDS011;54685;52.082;5.426;2023-01-24T07:38:01;30.25;;;20.35;;
67889;SDS011;54685;52.082;5.426;2023-01-24T07:40:27;32.03;;;20.50;;
67889;SDS011;54685;52.082;5.426;2023-01-24T07:42:54;31.95;;;21.02;;
67889;SDS011;54685;52.082;5.426;2023-01-24T07:45:21;33.13;;;20.60;;
67889;SDS011;54685;52.082;5.426;2023-01-24T07:47:48;31.15;;;20.48;;
67889;SDS011;54685;52.082;5.426;2023-01-24T07:50:15;30.35;;;19.92;;
67889;SDS011;54685;52.082;5.426;2023-01-24T07:52:42;30.02;;;20.52;;
67889;SDS011;54685;52.082;5.426;2023-01-24T07:55:08;29.35;;;20.20;;
67889;SDS011;54685;52.082;5.426;2023-01-24T07:57:35;28.73;;;20.33;;
67889;SDS011;54685;52.082;5.426;2023-01-24T08:00:02;30.58;;;20.27;;
67889;SDS011;54685;52.082;5.426;2023-01-24T08:02:36;30.48;;;20.77;;
67889;SDS011;54685;52.082;5.426;2023-01-24T08:05:03;28.90;;;18.98;;
67889;SDS011;54685;52.082;5.426;2023-01-24T08:07:30;32.20;;;20.25;;
67889;SDS011;54685;52.082;5.426;2023-01-24T08:09:57;31.38;;;20.00;;
67889;SDS011;54685;52.082;5.426;2023-01-24T08:12:24;29.92;;;19.90;;
67889;SDS011;54685;52.082;5.426;2023-01-24T08:14:51;31.35;;;19.55;;
67889;SDS011;54685;52.082;5.426;2023-01-24T08:17:17;34.33;;;21.67;;
67889;SDS011;54685;52.082;5.426;2023-01-24T08:19:44;30.70;;;19.55;;
67889;SDS011;54685;52.082;5.426;2023-01-24T08:22:21;31.52;;;19.33;;
67889;SDS011;54685;52.082;5.426;2023-01-24T08:24:48;30.90;;;19.73;;
67889;SDS011;54685;52.082;5.426;2023-01-24T08:27:15;27.60;;;18.88;;
67889;SDS011;54685;52.082;5.426;2023-01-24T08:29:45;26.38;;;18.08;;
67889;SDS011;54685;52.082;5.426;2023-01-24T08:32:21;28.10;;;19.00;;
67889;SDS011;54685;52.082;5.426;2023-01-24T08:34:58;30.48;;;19.55;;
67889;SDS011;54685;52.082;5.426;2023-01-24T08:37:24;28.33;;;18.40;;
67889;SDS011;54685;52.082;5.426;2023-01-24T08:39:51;30.67;;;18.75;;
67889;SDS011;54685;52.082;5.426;2023-01-24T08:42:18;25.35;;;17.15;;
67889;SDS011;54685;52.082;5.426;2023-01-24T08:44:45;27.30;;;17.73;;
67889;SDS011;54685;52.082;5.426;2023-01-24T08:47:11;25.27;;;17.80;;
67889;SDS011;54685;52.082;5.426;2023-01-24T08:49:38;26.55;;;17.70;;
67889;SDS011;54685;52.082;5.426;2023-01-24T08:52:05;25.60;;;17.88;;
67889;SDS011;54685;52.082;5.426;2023-01-24T08:54:33;25.77;;;18.42;;
67889;SDS011;54685;52.082;5.426;2023-01-24T08:57:02;30.65;;;20.55;;
67889;SDS011;54685;52.082;5.426;2023-01-24T08:59:30;28.27;;;19.17;;
67889;SDS011;54685;52.082;5.426;2023-01-24T09:01:57;29.98;;;18.27;;
67889;SDS011;54685;52.082;5.426;2023-01-24T09:04:24;28.70;;;18.70;;
67889;SDS011;54685;52.082;5.426;2023-01-24T09:06:52;24.35;;;16.88;;
67889;SDS011;54685;52.082;5.426;2023-01-24T09:09:19;27.45;;;16.88;;
67889;SDS011;54685;52.082;5.426;2023-01-24T09:11:46;26.08;;;17.05;;
67889;SDS011;54685;52.082;5.426;2023-01-24T09:14:15;25.27;;;17.42;;
67889;SDS011;54685;52.082;5.426;2023-01-24T09:16:42;26.88;;;17.23;;
67889;SDS011;54685;52.082;5.426;2023-01-24T09:19:10;27.35;;;17.90;;
67889;SDS011;54685;52.082;5.426;2023-01-24T09:21:38;27.35;;;17.33;;
67889;SDS011;54685;52.082;5.426;2023-01-24T09:24:05;28.17;;;17.73;;
67889;SDS011;54685;52.082;5.426;2023-01-24T09:26:32;25.85;;;17.52;;
67889;SDS011;54685;52.082;5.426;2023-01-24T09:28:59;26.67;;;17.70;;
67889;SDS011;54685;52.082;5.426;2023-01-24T09:31:25;25.20;;;16.70;;
67889;SDS011;54685;52.082;5.426;2023-01-24T09:33:55;25.88;;;16.80;;
67889;SDS011;54685;52.082;5.426;2023-01-24T09:36:25;26.27;;;17.40;;
67889;SDS011;54685;52.082;5.426;2023-01-24T09:38:52;25.35;;;16.58;;
67889;SDS011;54685;52.082;5.426;2023-01-24T09:44:39;27.83;;;17.55;;
67889;SDS011;54685;52.082;5.426;2023-01-24T09:47:14;27.05;;;17.92;;
67889;SDS011;54685;52.082;5.426;2023-01-24T09:49:55;30.60;;;19.05;;
67889;SDS011;54685;52.082;5.426;2023-01-24T09:52:36;30.33;;;17.85;;
67889;SDS011;54685;52.082;5.426;2023-01-24T09:55:11;34.97;;;20.60;;
67889;SDS011;54685;52.082;5.426;2023-01-24T10:00:31;30.17;;;18.50;;
67889;SDS011;54685;52.082;5.426;2023-01-24T10:03:09;39.05;;;23.38;;
67889;SDS011;54685;52.082;5.426;2023-01-24T10:05:45;37.63;;;21.85;;
67889;SDS011;54685;52.082;5.426;2023-01-24T10:08:29;35.80;;;22.70;;
67889;SDS011;54685;52.082;5.426;2023-01-24T10:25:26;27.42;;;17.88;;
67889;SDS011;54685;52.082;5.426;2023-01-24T10:28:15;27.60;;;17.13;;
67889;SDS011;54685;52.082;5.426;2023-01-24T10:31:08;26.88;;;17.90;;
67889;SDS011;54685;52.082;5.426;2023-01-24T10:33:49;25.65;;;17.27;;
67889;SDS011;54685;52.082;5.426;2023-01-24T10:38:57;24.15;;;15.98;;
67889;SDS011;54685;52.082;5.426;2023-01-24T10:41:24;26.50;;;17.27;;
67889;SDS011;54685;52.082;5.426;2023-01-24T10:43:58;26.70;;;17.30;;
67889;SDS011;54685;52.082;5.426;2023-01-24T10:49:23;29.25;;;17.35;;
67889;SDS011;54685;52.082;5.426;2023-01-24T10:52:06;26.92;;;17.30;;
67889;SDS011;54685;52.082;5.426;2023-01-24T10:54:52;24.23;;;16.65;;
67889;SDS011;54685;52.082;5.426;2023-01-24T10:57:36;27.65;;;16.30;;
67889;SDS011;54685;52.082;5.426;2023-01-24T11:02:57;24.50;;;15.97;;
67889;SDS011;54685;52.082;5.426;2023-01-24T11:05:44;24.77;;;15.57;;
67889;SDS011;54685;52.082;5.426;2023-01-24T11:08:17;25.27;;;15.90;;
67889;SDS011;54685;52.082;5.426;2023-01-24T11:11:16;21.98;;;15.15;;
67889;SDS011;54685;52.082;5.426;2023-01-24T11:13:46;23.47;;;15.17;;
67889;SDS011;54685;52.082;5.426;2023-01-24T11:18:46;24.45;;;14.98;;
67889;SDS011;54685;52.082;5.426;2023-01-24T11:21:17;20.17;;;15.00;;
67889;SDS011;54685;52.082;5.426;2023-01-24T11:23:45;24.33;;;14.70;;
67889;SDS011;54685;52.082;5.426;2023-01-24T11:26:54;19.50;;;14.35;;
67889;SDS011;54685;52.082;5.426;2023-01-24T11:29:28;20.67;;;14.68;;
67889;SDS011;54685;52.082;5.426;2023-01-24T11:37:34;24.15;;;14.00;;
67889;SDS011;54685;52.082;5.426;2023-01-24T11:40:39;22.98;;;15.10;;
67889;SDS011;54685;52.082;5.426;2023-01-24T11:43:20;19.80;;;14.45;;
67889;SDS011;54685;52.082;5.426;2023-01-24T11:55:08;26.02;;;14.63;;
67889;SDS011;54685;52.082;5.426;2023-01-24T11:57:48;20.10;;;13.82;;
67889;SDS011;54685;52.082;5.426;2023-01-24T12:00:35;19.98;;;14.95;;
67889;SDS011;54685;52.082;5.426;2023-01-24T12:09:32;20.10;;;14.98;;
67889;SDS011;54685;52.082;5.426;2023-01-24T12:20:32;21.02;;;15.50;;
67889;SDS011;54685;52.082;5.426;2023-01-24T12:26:34;23.17;;;15.68;;
67889;SDS011;54685;52.082;5.426;2023-01-24T12:37:23;22.67;;;16.33;;
67889;SDS011;54685;52.082;5.426;2023-01-24T12:45:33;27.92;;;17.15;;
67889;SDS011;54685;52.082;5.426;2023-01-24T12:48:13;25.23;;;17.17;;
67889;SDS011;54685;52.082;5.426;2023-01-24T12:50:52;22.73;;;16.08;;
67889;SDS011;54685;52.082;5.426;2023-01-24T12:53:42;21.75;;;16.00;;
67889;SDS011;54685;52.082;5.426;2023-01-24T12:56:23;22.48;;;16.48;;
67889;SDS011;54685;52.082;5.426;2023-01-24T12:59:13;21.02;;;15.60;;
67889;SDS011;54685;52.082;5.426;2023-01-24T13:02:02;21.40;;;16.13;;
67889;SDS011;54685;52.082;5.426;2023-01-24T13:04:47;24.23;;;15.02;;
67889;SDS011;54685;52.082;5.426;2023-01-24T13:10:27;21.30;;;15.90;;
67889;SDS011;54685;52.082;5.426;2023-01-24T13:12:58;22.08;;;15.60;;
67889;SDS011;54685;52.082;5.426;2023-01-24T13:15:29;21.92;;;15.60;;
67889;SDS011;54685;52.082;5.426;2023-01-24T13:18:12;23.83;;;15.43;;
67889;SDS011;54685;52.082;5.426;2023-01-24T13:32:18;19.92;;;14.70;;
67889;SDS011;54685;52.082;5.426;2023-01-24T13:34:48;21.33;;;15.55;;
67889;SDS011;54685;52.082;5.426;2023-01-24T13:37:23;24.30;;;16.15;;
67889;SDS011;54685;52.082;5.426;2023-01-24T13:40:37;21.52;;;15.90;;
67889;SDS011;54685;52.082;5.426;2023-01-24T13:42:52;21.00;;;16.27;;
67889;SDS011;54685;52.082;5.426;2023-01-24T13:47:49;21.80;;;15.77;;
67889;SDS011;54685;52.082;5.426;2023-01-24T13:50:18;23.27;;;16.77;;
67889;SDS011;54685;52.082;5.426;2023-01-24T13:52:47;23.60;;;16.23;;
67889;SDS011;54685;52.082;5.426;2023-01-24T13:57:45;22.05;;;16.30;;
67889;SDS011;54685;52.082;5.426;2023-01-24T14:05:36;22.70;;;15.70;;
67889;SDS011;54685;52.082;5.426;2023-01-24T14:10:47;21.17;;;16.55;;
67889;SDS011;54685;52.082;5.426;2023-01-24T14:18:51;22.58;;;16.65;;
67889;SDS011;54685;52.082;5.426;2023-01-24T14:21:20;23.33;;;17.17;;
67889;SDS011;54685;52.082;5.426;2023-01-24T14:23:57;24.70;;;17.25;;
67889;SDS011;54685;52.082;5.426;2023-01-24T14:26:32;23.48;;;16.23;;
67889;SDS011;54685;52.082;5.426;2023-01-24T14:29:02;21.55;;;16.40;;
67889;SDS011;54685;52.082;5.426;2023-01-24T14:31:34;20.90;;;15.30;;
67889;SDS011;54685;52.082;5.426;2023-01-24T14:36:40;21.65;;;16.63;;
67889;SDS011;54685;52.082;5.426;2023-01-24T14:41:45;19.98;;;16.05;;
67889;SDS011;54685;52.082;5.426;2023-01-24T14:44:25;22.52;;;17.02;;
67889;SDS011;54685;52.082;5.426;2023-01-24T14:49:35;24.63;;;17.25;;
67889;SDS011;54685;52.082;5.426;2023-01-24T14:52:41;20.95;;;16.10;;
67889;SDS011;54685;52.082;5.426;2023-01-24T14:57:53;24.08;;;16.98;;
67889;SDS011;54685;52.082;5.426;2023-01-24T15:00:21;28.63;;;16.65;;
67889;SDS011;54685;52.082;5.426;2023-01-24T15:02:59;24.48;;;16.65;;
67889;SDS011;54685;52.082;5.426;2023-01-24T15:08:00;23.05;;;16.48;;
67889;SDS011;54685;52.082;5.426;2023-01-24T15:13:05;19.60;;;15.80;;
67889;SDS011;54685;52.082;5.426;2023-01-24T15:15:34;23.58;;;15.13;;
67889;SDS011;54685;52.082;5.426;2023-01-24T15:18:03;22.10;;;15.57;;
67889;SDS011;54685;52.082;5.426;2023-01-24T15:20:36;20.70;;;15.70;;
67889;SDS011;54685;52.082;5.426;2023-01-24T15:23:03;22.00;;;16.10;;
67889;SDS011;54685;52.082;5.426;2023-01-24T15:25:35;20.70;;;15.00;;
67889;SDS011;54685;52.082;5.426;2023-01-24T15:30:56;19.00;;;14.90;;
67889;SDS011;54685;52.082;5.426;2023-01-24T15:33:25;19.67;;;15.30;;
67889;SDS011;54685;52.082;5.426;2023-01-24T15:36:25;21.60;;;15.98;;
67889;SDS011;54685;52.082;5.426;2023-01-24T15:38:56;20.00;;;14.85;;
67889;SDS011;54685;52.082;5.426;2023-01-24T15:41:26;18.15;;;14.30;;
67889;SDS011;54685;52.082;5.426;2023-01-24T15:44:12;21.35;;;15.18;;
67889;SDS011;54685;52.082;5.426;2023-01-24T15:46:44;19.83;;;14.75;;
67889;SDS011;54685;52.082;5.426;2023-01-24T15:49:39;20.75;;;15.45;;
67889;SDS011;54685;52.082;5.426;2023-01-24T15:52:21;18.70;;;14.95;;
67889;SDS011;54685;52.082;5.426;2023-01-24T15:54:49;20.95;;;15.00;;
67889;SDS011;54685;52.082;5.426;2023-01-24T15:57:29;23.70;;;14.88;;
67889;SDS011;54685;52.082;5.426;2023-01-24T15:59:59;19.92;;;15.35;;
67889;SDS011;54685;52.082;5.426;2023-01-24T16:02:36;17.83;;;15.20;;
67889;SDS011;54685;52.082;5.426;2023-01-24T16:05:13;19.27;;;15.32;;
67889;SDS011;54685;52.082;5.426;2023-01-24T16:07:42;23.25;;;15.85;;
67889;SDS011;54685;52.082;5.426;2023-01-24T16:10:12;20.38;;;15.55;;
67889;SDS011;54685;52.082;5.426;2023-01-24T16:12:40;20.85;;;15.55;;
67889;SDS011;54685;52.082;5.426;2023-01-24T16:15:09;22.45;;;17.08;;
67889;SDS011;54685;52.082;5.426;2023-01-24T16:17:42;24.08;;;16.75;;
67889;SDS011;54685;52.082;5.426;2023-01-24T16:20:19;24.23;;;17.67;;
67889;SDS011;54685;52.082;5.426;2023-01-24T16:22:48;25.23;;;17.35;;
67889;SDS011;54685;52.082;5.426;2023-01-24T16:25:15;21.60;;;16.58;;
67889;SDS011;54685;52.082;5.426;2023-01-24T16:27:43;21.52;;;16.60;;
67889;SDS011;54685;52.082;5.426;2023-01-24T16:30:20;19.90;;;15.82;;
67889;SDS011;54685;52.082;5.426;2023-01-24T16:32:49;21.10;;;15.48;;
67889;SDS011;54685;52.082;5.426;2023-01-24T16:35:16;22.17;;;16.30;;
67889;SDS011;54685;52.082;5.426;2023-01-24T16:37:52;24.38;;;17.67;;
67889;SDS011;54685;52.082;5.426;2023-01-24T16:40:19;27.15;;;17.38;;
67889;SDS011;54685;52.082;5.426;2023-01-24T16:42:47;26.33;;;16.35;;
67889;SDS011;54685;52.082;5.426;2023-01-24T16:45:15;22.42;;;16.27;;
67889;SDS011;54685;52.082;5.426;2023-01-24T16:47:45;24.58;;;17.00;;
67889;SDS011;54685;52.082;5.426;2023-01-24T16:50:12;23.58;;;16.40;;
67889;SDS011;54685;52.082;5.426;2023-01-24T16:52:42;23.55;;;16.50;;
67889;SDS011;54685;52.082;5.426;2023-01-24T16:55:08;22.83;;;16.92;;
67889;SDS011;54685;52.082;5.426;2023-01-24T16:57:35;21.30;;;16.65;;
67889;SDS011;54685;52.082;5.426;2023-01-24T17:00:07;20.88;;;16.17;;
67889;SDS011;54685;52.082;5.426;2023-01-24T17:02:38;20.90;;;16.63;;
67889;SDS011;54685;52.082;5.426;2023-01-24T17:05:09;23.73;;;17.73;;
67889;SDS011;54685;52.082;5.426;2023-01-24T17:07:37;22.92;;;16.95;;
67889;SDS011;54685;52.082;5.426;2023-01-24T17:10:04;23.98;;;18.42;;